Location Sebastian, FL, US

ob KFLSEBAS1 281745Z AUTO 14015G16KT FEW019 30/24 A3011 RMK SLPNO 

2017.04.28 1745 UTC
Wind from the SE (144 degrees) at 17.0 MPH (15 KT) gusting to 18.0 MPH (16 KT)
Visibility    Mile(s)
Sky Conditions  partly cloudy
Temperature 86.50 F (30 C)
Dew Point 75.98 F (24 C)
Relative Humidity 71%
Pressure   30.11 in. Hg (1020 hPa)
Rain  0.00 in.
Daily Rain  in.

Station Name  www.kflsebas1.com
Longitude, Latitude  -80.48, 27.8
Elevation 23
Station URL www.kflsebas1.com
Software Type VWS V15.00